Pagrindinis puslapis
METAR-TAF:

METAR-TAF

Oro uostai :

Arekipa, Peru

platuma: 16-19S, ilguma: 071-33W, Aukštis: 2538 m

Dabartinis oras

Ataskaita buvo paskelbta 21 minutes, ne 03:00 UTC
Vėjas 4 kt iš Rytų/Šiaurės Rytų
Temperatūra 16°C
Drėgmė 88%
Slėgis 1025 hPa
Matomumas 10 km arba daugiau
Su prošvaistėmis ne aukštis 8000 ft

METAR: SPQU 170300Z 06004KT 9999 BKN080 16/14 Q1025 RMK PP000

Laikas: 22:21 (03:21 UTC)

Prognozė

Ataskaita buvo paskelbta 4 valandos ir 21 minutes, ne 23:00 UTC
Prognozė galioja nuo 17 metu 00 UTC su 17 metu 24 UTC
Vėjas 3 kt iš Šiaurės
Matomumas 10 km arba daugiau
Su prošvaistėmis ne aukštis 9000 ft
lietus
Nuo 17 metu 0430 UTC
Vėjas 5 kt iš Šiaurės Rytų
Matomumas 10 km arba daugiau
Išsisklaidę debesys ne aukštis 12000 ft
Nuo 17 metu 1630 UTC
Vėjas 8 kt iš Vakarų/Pietvakarių
Matomumas 10 km arba daugiau
Išsisklaidę debesys ne aukštis 9000 ft

TAF: SPQU 162300Z 1700/1724 01003KT 9999 RA BKN090 TX21/1718Z TN13/1710Z FM170430 05005KT 9999 SCT120 FM171630 25008KT 9999 SCT090

Orai ataskaitas ir orų prognozės (METAR, TAF).

turimą stotys yra geltonos ir raudonos taškus žemėlapyje.

Perkelti pele per norėdami pamatyti stoties vardą.

Tada spustelėkite, norėdami matyti oro stebėjimo ir prognozės.

Norėdami pakeisti žemėlapį: spustelėkite ant žalios mygtukų su juodo kryžiaus žemyn,; žalią mygtuką su brūkšneliu, jei norite nutolinti; arba žalių rodyklių gretimoms žemėlapius.


METAR-TAF: